Guelph, North Dakota
Current Conditions -  °F | °C
As of 7:15 PM on Sunday 23 Nov 2014 (Local Time) from KGWR Reporting Station
Overcast Overcast  
Wind Chill: 11°   Ceiling: 1400
Heat Index: 25°   Visibility: 10mi
Dew Point: 19°   Wind: 20mph
Humidity: 80%   Direction: 320°NW
Pressure: 29.59"   Gusts: 30mph
Location:  46.1099°N, 98.1335°W
Report Text: KGWR 240115Z AUTO 32017G26KT 10SM OVC014 M04/M07 A2959 RMK A01 P000
Loading
Personal Weather Stations






























Interactive Weather Map New forecast layout! Learn more

10-Day Weather Forecast

Advertisements
Track Severe Weather on mobile